sensor_id;sensor_type;location;lat;lon;timestamp;P1;durP1;ratioP1;P2;durP2;ratioP2
19280;SDS011;9774;52.034;5.342;2024-01-16T00:02:10;2.38;;;0.50;;
19280;SDS011;9774;52.034;5.342;2024-01-16T00:04:37;2.33;;;0.63;;
19280;SDS011;9774;52.034;5.342;2024-01-16T00:07:05;3.65;;;0.93;;
19280;SDS011;9774;52.034;5.342;2024-01-16T00:09:33;2.70;;;0.60;;
19280;SDS011;9774;52.034;5.342;2024-01-16T00:12:01;3.70;;;0.60;;
19280;SDS011;9774;52.034;5.342;2024-01-16T00:14:29;2.95;;;0.45;;
19280;SDS011;9774;52.034;5.342;2024-01-16T00:16:56;3.22;;;0.40;;
19280;SDS011;9774;52.034;5.342;2024-01-16T00:19:24;4.43;;;0.80;;
19280;SDS011;9774;52.034;5.342;2024-01-16T00:21:51;4.07;;;0.50;;
19280;SDS011;9774;52.034;5.342;2024-01-16T00:24:18;3.85;;;0.88;;
19280;SDS011;9774;52.034;5.342;2024-01-16T00:26:45;4.25;;;0.52;;
19280;SDS011;9774;52.034;5.342;2024-01-16T00:29:14;2.92;;;0.40;;
19280;SDS011;9774;52.034;5.342;2024-01-16T00:31:42;3.35;;;0.80;;
19280;SDS011;9774;52.034;5.342;2024-01-16T00:34:09;2.00;;;0.50;;
19280;SDS011;9774;52.034;5.342;2024-01-16T00:36:37;2.63;;;0.75;;
19280;SDS011;9774;52.034;5.342;2024-01-16T00:39:04;2.67;;;0.68;;
19280;SDS011;9774;52.034;5.342;2024-01-16T00:41:32;5.75;;;1.25;;
19280;SDS011;9774;52.034;5.342;2024-01-16T00:43:59;4.88;;;0.63;;
19280;SDS011;9774;52.034;5.342;2024-01-16T00:46:26;1.88;;;0.55;;
19280;SDS011;9774;52.034;5.342;2024-01-16T00:48:53;2.05;;;0.47;;
19280;SDS011;9774;52.034;5.342;2024-01-16T00:51:20;1.63;;;0.50;;
19280;SDS011;9774;52.034;5.342;2024-01-16T00:53:48;2.65;;;0.55;;
19280;SDS011;9774;52.034;5.342;2024-01-16T00:56:15;4.30;;;0.55;;
19280;SDS011;9774;52.034;5.342;2024-01-16T00:58:42;3.03;;;0.43;;
19280;SDS011;9774;52.034;5.342;2024-01-16T01:01:09;1.98;;;0.60;;
19280;SDS011;9774;52.034;5.342;2024-01-16T01:03:36;1.52;;;0.50;;
19280;SDS011;9774;52.034;5.342;2024-01-16T01:06:04;6.00;;;0.93;;
19280;SDS011;9774;52.034;5.342;2024-01-16T01:08:31;2.90;;;0.40;;
19280;SDS011;9774;52.034;5.342;2024-01-16T01:10:59;2.65;;;0.80;;
19280;SDS011;9774;52.034;5.342;2024-01-16T01:13:28;3.38;;;0.70;;
19280;SDS011;9774;52.034;5.342;2024-01-16T01:15:55;4.53;;;0.70;;
19280;SDS011;9774;52.034;5.342;2024-01-16T01:18:22;3.33;;;0.77;;
19280;SDS011;9774;52.034;5.342;2024-01-16T01:20:49;2.85;;;0.30;;
19280;SDS011;9774;52.034;5.342;2024-01-16T01:23:16;2.85;;;0.70;;
19280;SDS011;9774;52.034;5.342;2024-01-16T01:25:43;3.17;;;0.60;;
19280;SDS011;9774;52.034;5.342;2024-01-16T01:28:12;2.75;;;0.52;;
19280;SDS011;9774;52.034;5.342;2024-01-16T01:30:39;2.65;;;0.75;;
19280;SDS011;9774;52.034;5.342;2024-01-16T01:33:06;2.92;;;0.35;;
19280;SDS011;9774;52.034;5.342;2024-01-16T01:35:33;1.70;;;0.52;;
19280;SDS011;9774;52.034;5.342;2024-01-16T01:38:01;2.05;;;0.68;;
19280;SDS011;9774;52.034;5.342;2024-01-16T01:40:28;1.27;;;0.55;;
19280;SDS011;9774;52.034;5.342;2024-01-16T01:42:55;2.42;;;0.52;;
19280;SDS011;9774;52.034;5.342;2024-01-16T01:45:23;4.50;;;0.77;;
19280;SDS011;9774;52.034;5.342;2024-01-16T01:47:50;2.33;;;0.80;;
19280;SDS011;9774;52.034;5.342;2024-01-16T01:50:17;2.00;;;0.40;;
19280;SDS011;9774;52.034;5.342;2024-01-16T01:52:44;2.42;;;0.77;;
19280;SDS011;9774;52.034;5.342;2024-01-16T01:55:13;2.00;;;0.68;;
19280;SDS011;9774;52.034;5.342;2024-01-16T01:57:42;1.88;;;0.60;;
19280;SDS011;9774;52.034;5.342;2024-01-16T02:00:09;4.07;;;0.70;;
19280;SDS011;9774;52.034;5.342;2024-01-16T02:02:39;2.08;;;0.73;;
19280;SDS011;9774;52.034;5.342;2024-01-16T02:05:08;3.28;;;1.00;;
19280;SDS011;9774;52.034;5.342;2024-01-16T02:07:35;3.20;;;0.80;;
19280;SDS011;9774;52.034;5.342;2024-01-16T02:10:03;3.45;;;0.75;;
19280;SDS011;9774;52.034;5.342;2024-01-16T02:12:31;3.40;;;1.30;;
19280;SDS011;9774;52.034;5.342;2024-01-16T02:14:58;4.18;;;1.20;;
19280;SDS011;9774;52.034;5.342;2024-01-16T02:17:25;3.40;;;0.50;;
19280;SDS011;9774;52.034;5.342;2024-01-16T02:19:54;2.65;;;0.65;;
19280;SDS011;9774;52.034;5.342;2024-01-16T02:22:21;1.75;;;0.30;;
19280;SDS011;9774;52.034;5.342;2024-01-16T02:24:53;3.08;;;0.57;;
19280;SDS011;9774;52.034;5.342;2024-01-16T02:27:22;2.40;;;0.20;;
19280;SDS011;9774;52.034;5.342;2024-01-16T02:29:49;1.48;;;0.38;;
19280;SDS011;9774;52.034;5.342;2024-01-16T02:32:16;2.03;;;0.60;;
19280;SDS011;9774;52.034;5.342;2024-01-16T02:34:43;1.48;;;0.30;;
19280;SDS011;9774;52.034;5.342;2024-01-16T02:37:10;0.80;;;0.30;;
19280;SDS011;9774;52.034;5.342;2024-01-16T02:39:38;2.55;;;0.30;;
19280;SDS011;9774;52.034;5.342;2024-01-16T02:42:06;1.17;;;0.20;;
19280;SDS011;9774;52.034;5.342;2024-01-16T02:44:33;2.53;;;0.47;;
19280;SDS011;9774;52.034;5.342;2024-01-16T02:47:00;2.72;;;0.60;;
19280;SDS011;9774;52.034;5.342;2024-01-16T02:49:27;5.28;;;0.30;;
19280;SDS011;9774;52.034;5.342;2024-01-16T02:51:57;0.80;;;0.20;;
19280;SDS011;9774;52.034;5.342;2024-01-16T02:54:24;3.42;;;0.50;;
19280;SDS011;9774;52.034;5.342;2024-01-16T02:56:51;1.85;;;0.65;;
19280;SDS011;9774;52.034;5.342;2024-01-16T02:59:19;3.05;;;0.30;;
19280;SDS011;9774;52.034;5.342;2024-01-16T03:01:46;1.42;;;0.50;;
19280;SDS011;9774;52.034;5.342;2024-01-16T03:04:13;1.95;;;0.40;;
19280;SDS011;9774;52.034;5.342;2024-01-16T03:06:40;2.53;;;0.57;;
19280;SDS011;9774;52.034;5.342;2024-01-16T03:09:07;1.23;;;0.30;;
19280;SDS011;9774;52.034;5.342;2024-01-16T03:11:34;2.75;;;0.70;;
19280;SDS011;9774;52.034;5.342;2024-01-16T03:14:01;1.02;;;0.30;;
19280;SDS011;9774;52.034;5.342;2024-01-16T03:16:30;0.98;;;0.30;;
19280;SDS011;9774;52.034;5.342;2024-01-16T03:18:57;0.47;;;0.20;;
19280;SDS011;9774;52.034;5.342;2024-01-16T03:21:24;2.42;;;0.63;;
19280;SDS011;9774;52.034;5.342;2024-01-16T03:23:51;5.60;;;0.85;;
19280;SDS011;9774;52.034;5.342;2024-01-16T03:26:19;1.60;;;0.60;;
19280;SDS011;9774;52.034;5.342;2024-01-16T03:28:47;4.07;;;0.32;;
19280;SDS011;9774;52.034;5.342;2024-01-16T03:31:14;1.63;;;0.35;;
19280;SDS011;9774;52.034;5.342;2024-01-16T03:33:44;0.63;;;0.30;;
19280;SDS011;9774;52.034;5.342;2024-01-16T03:36:11;1.10;;;0.40;;
19280;SDS011;9774;52.034;5.342;2024-01-16T03:38:38;2.38;;;0.40;;
19280;SDS011;9774;52.034;5.342;2024-01-16T03:41:06;0.63;;;0.45;;
19280;SDS011;9774;52.034;5.342;2024-01-16T03:43:33;1.70;;;0.30;;
19280;SDS011;9774;52.034;5.342;2024-01-16T03:46:00;1.13;;;0.40;;
19280;SDS011;9774;52.034;5.342;2024-01-16T03:48:27;6.00;;;0.77;;
19280;SDS011;9774;52.034;5.342;2024-01-16T03:50:55;0.68;;;0.35;;
19280;SDS011;9774;52.034;5.342;2024-01-16T03:53:23;6.85;;;0.40;;
19280;SDS011;9774;52.034;5.342;2024-01-16T03:55:50;2.05;;;0.32;;
19280;SDS011;9774;52.034;5.342;2024-01-16T03:58:17;1.45;;;0.20;;
19280;SDS011;9774;52.034;5.342;2024-01-16T04:00:44;0.88;;;0.30;;
19280;SDS011;9774;52.034;5.342;2024-01-16T04:03:15;1.67;;;0.25;;
19280;SDS011;9774;52.034;5.342;2024-01-16T04:05:42;2.78;;;0.95;;
19280;SDS011;9774;52.034;5.342;2024-01-16T04:08:11;1.25;;;0.40;;
19280;SDS011;9774;52.034;5.342;2024-01-16T04:10:38;5.65;;;0.88;;
19280;SDS011;9774;52.034;5.342;2024-01-16T04:13:05;1.27;;;0.30;;
19280;SDS011;9774;52.034;5.342;2024-01-16T04:15:32;4.00;;;0.60;;
19280;SDS011;9774;52.034;5.342;2024-01-16T04:17:59;1.15;;;0.25;;
19280;SDS011;9774;52.034;5.342;2024-01-16T04:20:28;3.13;;;0.47;;
19280;SDS011;9774;52.034;5.342;2024-01-16T04:22:55;2.65;;;0.80;;
19280;SDS011;9774;52.034;5.342;2024-01-16T04:25:24;1.63;;;0.45;;
19280;SDS011;9774;52.034;5.342;2024-01-16T04:27:51;2.03;;;0.40;;
19280;SDS011;9774;52.034;5.342;2024-01-16T04:30:18;3.67;;;0.40;;
19280;SDS011;9774;52.034;5.342;2024-01-16T04:32:46;1.65;;;0.30;;
19280;SDS011;9774;52.034;5.342;2024-01-16T04:35:13;2.70;;;0.55;;
19280;SDS011;9774;52.034;5.342;2024-01-16T04:37:40;2.33;;;0.50;;
19280;SDS011;9774;52.034;5.342;2024-01-16T04:40:08;1.58;;;0.50;;
19280;SDS011;9774;52.034;5.342;2024-01-16T04:42:37;1.02;;;0.45;;
19280;SDS011;9774;52.034;5.342;2024-01-16T04:45:04;2.67;;;0.32;;
19280;SDS011;9774;52.034;5.342;2024-01-16T04:47:33;1.50;;;0.60;;
19280;SDS011;9774;52.034;5.342;2024-01-16T04:50:00;2.67;;;0.50;;
19280;SDS011;9774;52.034;5.342;2024-01-16T04:52:27;2.88;;;0.52;;
19280;SDS011;9774;52.034;5.342;2024-01-16T04:54:54;1.10;;;0.55;;
19280;SDS011;9774;52.034;5.342;2024-01-16T04:57:21;2.50;;;0.52;;
19280;SDS011;9774;52.034;5.342;2024-01-16T04:59:49;1.80;;;0.30;;
19280;SDS011;9774;52.034;5.342;2024-01-16T05:02:16;1.45;;;0.68;;
19280;SDS011;9774;52.034;5.342;2024-01-16T05:04:43;0.68;;;0.50;;
19280;SDS011;9774;52.034;5.342;2024-01-16T05:07:14;2.05;;;0.82;;
19280;SDS011;9774;52.034;5.342;2024-01-16T05:09:42;1.88;;;0.57;;
19280;SDS011;9774;52.034;5.342;2024-01-16T05:12:11;2.67;;;0.63;;
19280;SDS011;9774;52.034;5.342;2024-01-16T05:14:38;1.30;;;0.68;;
19280;SDS011;9774;52.034;5.342;2024-01-16T05:17:06;2.08;;;0.68;;
19280;SDS011;9774;52.034;5.342;2024-01-16T05:19:34;2.42;;;0.60;;
19280;SDS011;9774;52.034;5.342;2024-01-16T05:22:01;1.88;;;0.80;;
19280;SDS011;9774;52.034;5.342;2024-01-16T05:24:29;2.60;;;0.68;;
19280;SDS011;9774;52.034;5.342;2024-01-16T05:26:56;2.17;;;0.70;;
19280;SDS011;9774;52.034;5.342;2024-01-16T05:29:23;1.50;;;0.68;;
19280;SDS011;9774;52.034;5.342;2024-01-16T05:31:50;1.48;;;0.82;;
19280;SDS011;9774;52.034;5.342;2024-01-16T05:34:19;2.70;;;0.85;;
19280;SDS011;9774;52.034;5.342;2024-01-16T05:36:46;3.72;;;1.45;;
19280;SDS011;9774;52.034;5.342;2024-01-16T05:39:13;1.73;;;1.00;;
19280;SDS011;9774;52.034;5.342;2024-01-16T05:41:40;2.63;;;0.80;;
19280;SDS011;9774;52.034;5.342;2024-01-16T05:44:07;1.73;;;0.70;;
19280;SDS011;9774;52.034;5.342;2024-01-16T05:46:34;2.08;;;0.70;;
19280;SDS011;9774;52.034;5.342;2024-01-16T05:49:01;2.75;;;0.93;;
19280;SDS011;9774;52.034;5.342;2024-01-16T05:51:30;3.47;;;1.40;;
19280;SDS011;9774;52.034;5.342;2024-01-16T05:53:57;5.10;;;1.15;;
19280;SDS011;9774;52.034;5.342;2024-01-16T05:56:24;4.18;;;1.27;;
19280;SDS011;9774;52.034;5.342;2024-01-16T05:58:51;2.53;;;1.27;;
19280;SDS011;9774;52.034;5.342;2024-01-16T06:01:18;2.97;;;1.20;;
19280;SDS011;9774;52.034;5.342;2024-01-16T06:03:45;3.10;;;1.70;;
19280;SDS011;9774;52.034;5.342;2024-01-16T06:06:13;7.72;;;1.30;;
19280;SDS011;9774;52.034;5.342;2024-01-16T06:08:42;1.73;;;1.17;;
19280;SDS011;9774;52.034;5.342;2024-01-16T06:11:09;3.67;;;1.90;;
19280;SDS011;9774;52.034;5.342;2024-01-16T06:13:37;1.80;;;1.38;;
19280;SDS011;9774;52.034;5.342;2024-01-16T06:16:05;6.35;;;1.90;;
19280;SDS011;9774;52.034;5.342;2024-01-16T06:18:33;3.58;;;1.75;;
19280;SDS011;9774;52.034;5.342;2024-01-16T06:21:00;4.78;;;1.95;;
19280;SDS011;9774;52.034;5.342;2024-01-16T06:23:27;2.00;;;1.65;;
19280;SDS011;9774;52.034;5.342;2024-01-16T06:25:56;3.00;;;1.70;;
19280;SDS011;9774;52.034;5.342;2024-01-16T06:28:23;3.08;;;1.90;;
19280;SDS011;9774;52.034;5.342;2024-01-16T06:30:49;3.90;;;2.10;;
19280;SDS011;9774;52.034;5.342;2024-01-16T06:33:16;3.15;;;1.80;;
19280;SDS011;9774;52.034;5.342;2024-01-16T06:35:43;2.92;;;1.90;;
19280;SDS011;9774;52.034;5.342;2024-01-16T06:38:10;3.03;;;2.00;;
19280;SDS011;9774;52.034;5.342;2024-01-16T06:40:37;3.40;;;2.03;;
19280;SDS011;9774;52.034;5.342;2024-01-16T06:43:05;2.97;;;1.83;;
19280;SDS011;9774;52.034;5.342;2024-01-16T06:45:33;3.92;;;2.45;;
19280;SDS011;9774;52.034;5.342;2024-01-16T06:48:01;3.28;;;2.15;;
19280;SDS011;9774;52.034;5.342;2024-01-16T06:50:28;4.57;;;2.15;;
19280;SDS011;9774;52.034;5.342;2024-01-16T06:52:55;3.08;;;2.55;;
19280;SDS011;9774;52.034;5.342;2024-01-16T06:55:22;2.00;;;1.65;;
19280;SDS011;9774;52.034;5.342;2024-01-16T06:57:49;3.38;;;1.80;;
19280;SDS011;9774;52.034;5.342;2024-01-16T07:00:17;4.03;;;2.22;;
19280;SDS011;9774;52.034;5.342;2024-01-16T07:02:47;3.60;;;1.75;;
19280;SDS011;9774;52.034;5.342;2024-01-16T07:05:16;3.58;;;1.70;;
19280;SDS011;9774;52.034;5.342;2024-01-16T07:07:43;7.15;;;2.92;;
19280;SDS011;9774;52.034;5.342;2024-01-16T07:10:10;4.13;;;2.13;;
19280;SDS011;9774;52.034;5.342;2024-01-16T07:12:43;3.13;;;1.50;;
19280;SDS011;9774;52.034;5.342;2024-01-16T07:15:10;3.15;;;1.50;;
19280;SDS011;9774;52.034;5.342;2024-01-16T07:17:39;3.38;;;1.45;;
19280;SDS011;9774;52.034;5.342;2024-01-16T07:20:07;5.15;;;1.60;;
19280;SDS011;9774;52.034;5.342;2024-01-16T07:22:36;5.10;;;1.70;;
19280;SDS011;9774;52.034;5.342;2024-01-16T07:25:04;2.17;;;1.70;;
19280;SDS011;9774;52.034;5.342;2024-01-16T07:27:32;4.13;;;1.83;;
19280;SDS011;9774;52.034;5.342;2024-01-16T07:29:59;3.28;;;2.00;;
19280;SDS011;9774;52.034;5.342;2024-01-16T07:32:26;2.65;;;1.80;;
19280;SDS011;9774;52.034;5.342;2024-01-16T07:34:55;3.53;;;2.28;;
19280;SDS011;9774;52.034;5.342;2024-01-16T07:37:22;4.13;;;2.95;;
19280;SDS011;9774;52.034;5.342;2024-01-16T07:39:49;5.72;;;3.03;;
19280;SDS011;9774;52.034;5.342;2024-01-16T07:42:16;4.53;;;2.47;;
19280;SDS011;9774;52.034;5.342;2024-01-16T07:44:43;4.43;;;3.03;;
19280;SDS011;9774;52.034;5.342;2024-01-16T07:47:10;8.43;;;4.07;;
19280;SDS011;9774;52.034;5.342;2024-01-16T07:49:37;5.13;;;3.22;;
19280;SDS011;9774;52.034;5.342;2024-01-16T07:52:05;5.85;;;3.55;;
19280;SDS011;9774;52.034;5.342;2024-01-16T07:54:32;4.72;;;2.92;;
19280;SDS011;9774;52.034;5.342;2024-01-16T07:57:00;4.90;;;2.80;;
19280;SDS011;9774;52.034;5.342;2024-01-16T07:59:27;3.67;;;2.78;;
19280;SDS011;9774;52.034;5.342;2024-01-16T08:01:54;4.75;;;3.33;;
19280;SDS011;9774;52.034;5.342;2024-01-16T08:04:21;5.70;;;2.80;;
19280;SDS011;9774;52.034;5.342;2024-01-16T08:06:48;3.08;;;2.55;;
19280;SDS011;9774;52.034;5.342;2024-01-16T08:09:16;5.22;;;2.53;;
19280;SDS011;9774;52.034;5.342;2024-01-16T08:11:44;5.40;;;3.30;;
19280;SDS011;9774;52.034;5.342;2024-01-16T08:14:12;4.38;;;2.65;;
19280;SDS011;9774;52.034;5.342;2024-01-16T08:16:39;8.15;;;3.30;;
19280;SDS011;9774;52.034;5.342;2024-01-16T08:19:06;6.80;;;3.00;;
19280;SDS011;9774;52.034;5.342;2024-01-16T08:21:33;3.65;;;2.72;;
19280;SDS011;9774;52.034;5.342;2024-01-16T08:24:00;5.28;;;2.83;;
19280;SDS011;9774;52.034;5.342;2024-01-16T08:26:28;6.38;;;3.25;;
19280;SDS011;9774;52.034;5.342;2024-01-16T08:28:55;6.60;;;2.80;;
19280;SDS011;9774;52.034;5.342;2024-01-16T08:31:24;4.72;;;2.90;;
19280;SDS011;9774;52.034;5.342;2024-01-16T08:33:51;5.55;;;2.30;;
19280;SDS011;9774;52.034;5.342;2024-01-16T08:36:21;5.00;;;2.20;;
19280;SDS011;9774;52.034;5.342;2024-01-16T08:38:48;5.63;;;1.98;;
19280;SDS011;9774;52.034;5.342;2024-01-16T08:41:15;8.05;;;2.38;;
19280;SDS011;9774;52.034;5.342;2024-01-16T08:43:43;4.82;;;2.10;;
19280;SDS011;9774;52.034;5.342;2024-01-16T08:46:10;3.03;;;2.08;;
19280;SDS011;9774;52.034;5.342;2024-01-16T08:48:38;6.05;;;2.80;;
19280;SDS011;9774;52.034;5.342;2024-01-16T08:51:06;3.55;;;2.10;;
19280;SDS011;9774;52.034;5.342;2024-01-16T08:53:39;3.80;;;1.90;;
19280;SDS011;9774;52.034;5.342;2024-01-16T08:56:07;3.92;;;1.80;;
19280;SDS011;9774;52.034;5.342;2024-01-16T08:58:34;4.00;;;1.90;;
19280;SDS011;9774;52.034;5.342;2024-01-16T09:01:04;4.72;;;1.92;;
19280;SDS011;9774;52.034;5.342;2024-01-16T09:03:32;2.17;;;1.60;;
19280;SDS011;9774;52.034;5.342;2024-01-16T09:05:59;3.50;;;2.22;;
19280;SDS011;9774;52.034;5.342;2024-01-16T09:08:28;3.58;;;1.67;;
19280;SDS011;9774;52.034;5.342;2024-01-16T09:10:55;3.75;;;2.30;;
19280;SDS011;9774;52.034;5.342;2024-01-16T09:13:23;6.38;;;2.03;;
19280;SDS011;9774;52.034;5.342;2024-01-16T09:15:50;4.90;;;2.20;;
19280;SDS011;9774;52.034;5.342;2024-01-16T09:18:18;4.75;;;1.70;;
19280;SDS011;9774;52.034;5.342;2024-01-16T09:20:45;4.28;;;2.20;;
19280;SDS011;9774;52.034;5.342;2024-01-16T09:23:13;4.15;;;1.73;;
19280;SDS011;9774;52.034;5.342;2024-01-16T09:25:40;4.07;;;2.17;;
19280;SDS011;9774;52.034;5.342;2024-01-16T09:28:07;4.18;;;1.98;;
19280;SDS011;9774;52.034;5.342;2024-01-16T09:30:34;6.70;;;2.40;;
19280;SDS011;9774;52.034;5.342;2024-01-16T09:33:01;3.67;;;2.08;;
19280;SDS011;9774;52.034;5.342;2024-01-16T09:35:33;3.40;;;1.90;;
19280;SDS011;9774;52.034;5.342;2024-01-16T09:38:00;4.45;;;2.00;;
19280;SDS011;9774;52.034;5.342;2024-01-16T09:40:27;5.18;;;1.77;;
19280;SDS011;9774;52.034;5.342;2024-01-16T09:42:54;3.05;;;1.90;;
19280;SDS011;9774;52.034;5.342;2024-01-16T09:45:21;3.28;;;1.77;;
19280;SDS011;9774;52.034;5.342;2024-01-16T09:47:50;3.70;;;1.98;;
19280;SDS011;9774;52.034;5.342;2024-01-16T09:50:19;5.72;;;2.42;;
19280;SDS011;9774;52.034;5.342;2024-01-16T09:52:48;3.95;;;1.98;;
19280;SDS011;9774;52.034;5.342;2024-01-16T09:55:15;3.80;;;1.73;;
19280;SDS011;9774;52.034;5.342;2024-01-16T09:57:44;3.15;;;2.13;;
19280;SDS011;9774;52.034;5.342;2024-01-16T10:00:12;4.70;;;2.20;;
19280;SDS011;9774;52.034;5.342;2024-01-16T10:02:41;5.20;;;2.03;;
19280;SDS011;9774;52.034;5.342;2024-01-16T10:05:09;4.38;;;2.15;;
19280;SDS011;9774;52.034;5.342;2024-01-16T10:07:38;3.38;;;1.85;;
19280;SDS011;9774;52.034;5.342;2024-01-16T10:10:11;3.40;;;1.80;;
19280;SDS011;9774;52.034;5.342;2024-01-16T10:12:39;2.47;;;1.88;;
19280;SDS011;9774;52.034;5.342;2024-01-16T10:15:07;3.78;;;1.90;;
19280;SDS011;9774;52.034;5.342;2024-01-16T10:17:35;3.63;;;1.90;;
19280;SDS011;9774;52.034;5.342;2024-01-16T10:20:03;4.50;;;1.98;;
19280;SDS011;9774;52.034;5.342;2024-01-16T10:22:32;4.95;;;2.00;;
19280;SDS011;9774;52.034;5.342;2024-01-16T10:25:05;4.85;;;2.03;;
19280;SDS011;9774;52.034;5.342;2024-01-16T10:27:36;6.65;;;2.08;;
19280;SDS011;9774;52.034;5.342;2024-01-16T10:30:06;3.15;;;1.85;;
19280;SDS011;9774;52.034;5.342;2024-01-16T10:32:35;5.85;;;2.15;;
19280;SDS011;9774;52.034;5.342;2024-01-16T10:35:04;2.88;;;1.88;;
19280;SDS011;9774;52.034;5.342;2024-01-16T10:37:43;5.88;;;2.20;;
19280;SDS011;9774;52.034;5.342;2024-01-16T10:40:15;4.53;;;1.98;;
19280;SDS011;9774;52.034;5.342;2024-01-16T10:42:45;5.63;;;2.17;;
19280;SDS011;9774;52.034;5.342;2024-01-16T10:45:16;5.78;;;1.95;;
19280;SDS011;9774;52.034;5.342;2024-01-16T10:47:45;3.30;;;1.90;;
19280;SDS011;9774;52.034;5.342;2024-01-16T10:50:13;5.00;;;1.48;;
19280;SDS011;9774;52.034;5.342;2024-01-16T10:52:42;3.53;;;1.92;;
19280;SDS011;9774;52.034;5.342;2024-01-16T10:55:15;4.10;;;1.70;;
19280;SDS011;9774;52.034;5.342;2024-01-16T10:57:50;5.07;;;1.45;;
19280;SDS011;9774;52.034;5.342;2024-01-16T11:00:18;4.63;;;1.92;;
19280;SDS011;9774;52.034;5.342;2024-01-16T11:02:49;3.53;;;1.70;;
19280;SDS011;9774;52.034;5.342;2024-01-16T11:05:23;2.75;;;1.75;;
19280;SDS011;9774;52.034;5.342;2024-01-16T11:07:53;4.03;;;1.80;;
19280;SDS011;9774;52.034;5.342;2024-01-16T11:10:22;3.70;;;1.75;;
19280;SDS011;9774;52.034;5.342;2024-01-16T11:12:52;3.67;;;1.77;;
19280;SDS011;9774;52.034;5.342;2024-01-16T11:15:21;5.55;;;1.58;;
19280;SDS011;9774;52.034;5.342;2024-01-16T11:17:50;4.78;;;1.75;;
19280;SDS011;9774;52.034;5.342;2024-01-16T11:20:20;2.50;;;1.63;;
19280;SDS011;9774;52.034;5.342;2024-01-16T11:22:47;4.80;;;1.50;;
19280;SDS011;9774;52.034;5.342;2024-01-16T11:25:19;3.05;;;1.45;;
19280;SDS011;9774;52.034;5.342;2024-01-16T11:27:47;2.38;;;1.42;;
19280;SDS011;9774;52.034;5.342;2024-01-16T11:30:28;4.70;;;1.85;;
19280;SDS011;9774;52.034;5.342;2024-01-16T11:32:57;2.55;;;1.33;;
19280;SDS011;9774;52.034;5.342;2024-01-16T11:35:31;3.38;;;1.60;;
19280;SDS011;9774;52.034;5.342;2024-01-16T11:38:03;3.63;;;1.63;;
19280;SDS011;9774;52.034;5.342;2024-01-16T11:40:33;2.40;;;1.45;;
19280;SDS011;9774;52.034;5.342;2024-01-16T11:46:03;3.63;;;1.48;;
19280;SDS011;9774;52.034;5.342;2024-01-16T11:48:32;2.78;;;1.67;;
19280;SDS011;9774;52.034;5.342;2024-01-16T11:51:00;3.28;;;1.85;;
19280;SDS011;9774;52.034;5.342;2024-01-16T11:53:50;3.85;;;1.70;;
19280;SDS011;9774;52.034;5.342;2024-01-16T12:02:37;3.08;;;1.60;;
19280;SDS011;9774;52.034;5.342;2024-01-16T12:05:15;2.75;;;1.50;;
19280;SDS011;9774;52.034;5.342;2024-01-16T12:07:44;3.47;;;1.85;;
19280;SDS011;9774;52.034;5.342;2024-01-16T12:10:14;3.55;;;2.08;;
19280;SDS011;9774;52.034;5.342;2024-01-16T12:12:42;4.10;;;2.00;;
19280;SDS011;9774;52.034;5.342;2024-01-16T12:15:13;4.15;;;2.28;;
19280;SDS011;9774;52.034;5.342;2024-01-16T12:20:27;8.52;;;2.38;;
19280;SDS011;9774;52.034;5.342;2024-01-16T12:22:57;5.82;;;2.15;;
19280;SDS011;9774;52.034;5.342;2024-01-16T12:25:26;4.60;;;2.13;;
19280;SDS011;9774;52.034;5.342;2024-01-16T12:27:56;3.25;;;1.90;;
19280;SDS011;9774;52.034;5.342;2024-01-16T12:30:25;6.75;;;1.92;;
19280;SDS011;9774;52.034;5.342;2024-01-16T12:33:03;6.00;;;2.03;;
19280;SDS011;9774;52.034;5.342;2024-01-16T12:35:33;4.60;;;2.03;;
19280;SDS011;9774;52.034;5.342;2024-01-16T12:38:01;2.65;;;1.90;;
19280;SDS011;9774;52.034;5.342;2024-01-16T12:40:31;4.50;;;1.77;;
19280;SDS011;9774;52.034;5.342;2024-01-16T12:42:59;5.97;;;2.10;;
19280;SDS011;9774;52.034;5.342;2024-01-16T12:45:26;3.30;;;1.95;;
19280;SDS011;9774;52.034;5.342;2024-01-16T12:47:54;2.30;;;1.50;;
19280;SDS011;9774;52.034;5.342;2024-01-16T12:50:25;8.70;;;2.42;;
19280;SDS011;9774;52.034;5.342;2024-01-16T12:53:01;3.38;;;2.25;;
19280;SDS011;9774;52.034;5.342;2024-01-16T12:55:30;3.67;;;1.77;;
19280;SDS011;9774;52.034;5.342;2024-01-16T12:58:14;3.05;;;1.95;;
19280;SDS011;9774;52.034;5.342;2024-01-16T13:00:42;2.58;;;1.50;;
19280;SDS011;9774;52.034;5.342;2024-01-16T13:03:16;3.45;;;1.88;;
19280;SDS011;9774;52.034;5.342;2024-01-16T13:05:54;2.42;;;1.50;;
19280;SDS011;9774;52.034;5.342;2024-01-16T13:08:22;2.10;;;1.35;;
19280;SDS011;9774;52.034;5.342;2024-01-16T13:11:02;6.97;;;1.70;;
19280;SDS011;9774;52.034;5.342;2024-01-16T13:13:32;3.28;;;1.98;;
19280;SDS011;9774;52.034;5.342;2024-01-16T13:16:00;3.05;;;1.70;;
19280;SDS011;9774;52.034;5.342;2024-01-16T13:18:30;3.28;;;1.77;;
19280;SDS011;9774;52.034;5.342;2024-01-16T13:20:59;4.57;;;2.22;;
19280;SDS011;9774;52.034;5.342;2024-01-16T13:23:27;4.63;;;1.98;;
19280;SDS011;9774;52.034;5.342;2024-01-16T13:25:55;2.35;;;1.52;;
19280;SDS011;9774;52.034;5.342;2024-01-16T13:28:24;1.75;;;1.52;;
19280;SDS011;9774;52.034;5.342;2024-01-16T13:30:52;3.97;;;2.47;;
19280;SDS011;9774;52.034;5.342;2024-01-16T13:33:20;4.32;;;1.70;;
19280;SDS011;9774;52.034;5.342;2024-01-16T13:35:49;4.97;;;1.80;;
19280;SDS011;9774;52.034;5.342;2024-01-16T13:38:18;3.92;;;1.55;;
19280;SDS011;9774;52.034;5.342;2024-01-16T13:40:45;1.80;;;1.45;;
19280;SDS011;9774;52.034;5.342;2024-01-16T13:43:15;3.38;;;1.60;;
19280;SDS011;9774;52.034;5.342;2024-01-16T13:45:42;5.65;;;1.85;;
19280;SDS011;9774;52.034;5.342;2024-01-16T13:48:09;2.97;;;1.65;;
19280;SDS011;9774;52.034;5.342;2024-01-16T13:50:36;4.05;;;1.90;;
19280;SDS011;9774;52.034;5.342;2024-01-16T13:53:03;5.10;;;2.25;;
19280;SDS011;9774;52.034;5.342;2024-01-16T13:55:31;3.72;;;1.77;;
19280;SDS011;9774;52.034;5.342;2024-01-16T13:57:58;3.08;;;1.65;;
19280;SDS011;9774;52.034;5.342;2024-01-16T14:00:25;4.43;;;2.20;;
19280;SDS011;9774;52.034;5.342;2024-01-16T14:02:52;4.05;;;1.77;;
19280;SDS011;9774;52.034;5.342;2024-01-16T14:05:19;2.92;;;1.52;;
19280;SDS011;9774;52.034;5.342;2024-01-16T14:07:48;3.67;;;1.77;;
19280;SDS011;9774;52.034;5.342;2024-01-16T14:10:17;5.53;;;1.70;;
19280;SDS011;9774;52.034;5.342;2024-01-16T14:12:48;3.90;;;1.60;;
19280;SDS011;9774;52.034;5.342;2024-01-16T14:15:16;4.28;;;2.05;;
19280;SDS011;9774;52.034;5.342;2024-01-16T14:17:46;3.97;;;1.60;;
19280;SDS011;9774;52.034;5.342;2024-01-16T14:20:15;2.15;;;1.50;;
19280;SDS011;9774;52.034;5.342;2024-01-16T14:22:46;4.40;;;1.73;;
19280;SDS011;9774;52.034;5.342;2024-01-16T14:25:13;2.70;;;1.42;;
19280;SDS011;9774;52.034;5.342;2024-01-16T14:27:44;2.20;;;1.45;;
19280;SDS011;9774;52.034;5.342;2024-01-16T14:30:15;6.28;;;1.80;;
19280;SDS011;9774;52.034;5.342;2024-01-16T14:32:44;2.97;;;1.50;;
19280;SDS011;9774;52.034;5.342;2024-01-16T14:35:13;3.42;;;1.58;;
19280;SDS011;9774;52.034;5.342;2024-01-16T14:37:42;3.63;;;1.42;;
19280;SDS011;9774;52.034;5.342;2024-01-16T14:40:10;2.42;;;1.40;;
19280;SDS011;9774;52.034;5.342;2024-01-16T14:42:41;3.30;;;1.80;;
19280;SDS011;9774;52.034;5.342;2024-01-16T14:45:09;2.45;;;1.35;;
19280;SDS011;9774;52.034;5.342;2024-01-16T14:47:39;5.30;;;1.65;;
19280;SDS011;9774;52.034;5.342;2024-01-16T14:50:09;2.63;;;1.40;;
19280;SDS011;9774;52.034;5.342;2024-01-16T14:52:37;4.60;;;1.50;;
19280;SDS011;9774;52.034;5.342;2024-01-16T14:55:05;1.80;;;1.30;;
19280;SDS011;9774;52.034;5.342;2024-01-16T14:57:33;4.07;;;1.50;;
19280;SDS011;9774;52.034;5.342;2024-01-16T15:00:07;3.03;;;1.40;;
19280;SDS011;9774;52.034;5.342;2024-01-16T15:02:41;3.00;;;1.52;;
19280;SDS011;9774;52.034;5.342;2024-01-16T15:05:08;3.70;;;1.77;;
19280;SDS011;9774;52.034;5.342;2024-01-16T15:07:37;3.08;;;1.73;;
19280;SDS011;9774;52.034;5.342;2024-01-16T15:10:06;2.60;;;1.45;;
19280;SDS011;9774;52.034;5.342;2024-01-16T15:12:36;3.90;;;1.70;;
19280;SDS011;9774;52.034;5.342;2024-01-16T15:15:04;3.15;;;1.50;;
19280;SDS011;9774;52.034;5.342;2024-01-16T15:17:34;2.15;;;1.33;;
19280;SDS011;9774;52.034;5.342;2024-01-16T15:20:02;3.35;;;1.50;;